Sedalia, MO (65301)

3:35 AM CDT on April 22, 2018 (GMT -0500)
Sedalia MO | | Change Station

Elev 909 ft 38.70 °N, 93.24 °W | Updated 27 seconds ago

Overcast
Overcast
55.0 °F
Feels Like 55.0 °F
N
0.4
Wind Variable Wind from NW
Gusts 2.5 mph

Today
High -- | Low -- °F
--% Chance of Precip.
Yesterday
High -- | Low -- °F
Precip. -- in
Pressure 30.09 in
Visibility 10.0 miles
Clouds Overcast 7000 ft
Dew Point 38 °F
Humidity 52%
Rainfall 0.00 in
Snow Depth Not available.
6:26 AM 7:56 PM
Waxing Crescent, 44% visible
METAR KDMO 220753Z AUTO 05008KT 10SM OVC070 12/04 A3009 RMK AO2 RAE32 SLP188 P0000 T01220044
Pressure 30.09 in
Visibility 10.0 miles
Clouds Overcast 7000 ft
Dew Point 38 °F
Humidity 52%
Rainfall 0.00 in
Snow Depth Not available.
6:26 AM 7:56 PM
Waxing Crescent, 44% visible
METAR KDMO 220753Z AUTO 05008KT 10SM OVC070 12/04 A3009 RMK AO2 RAE32 SLP188 P0000 T01220044

Get Severe Weather Alerts

Thanks for signing up!

Be on the lookout for a verification email in your inbox.

You'll start receiving the daily forecast at 6 AM.

×

10-Day Weather Forecast

Almanac

Astronomy

Apr. 22, 2018 Rise Set
Actual Time
Civil Twilight
Nautical Twilight
Astronomical Twilight
Moon
Length of Visible Light
Length of Day
Tomorrow will be .
, % of the Moon is Illuminated

Today's Extremes

State Highs State Lows

Community

WunderPhotos

Category 6

Welcome to Category 6. This is the collective home for Weather Underground's featured writeups by Dr. Jeff Masters (right), Bob Henson (left), Chris Burt, and other regular contributors.

Nearby

Air Quality

  Air Quality AQ Index Pollutant
Not available.

Snow Depth

Station Depth Elevation

Earthquake Activity

City Distance Mag. Time & Date
Minimum magnitude displayed is 2.5.

Coastal Water Temperatures

Place Temperature

Stations

Nearby Weather Stations

Station Location Temp. Windchill Dew Point Humidity Wind Precip. Elev Updated Type
                   

Watches & Warnings

There are currently no watches in effect.